sensor_id;sensor_type;location;lat;lon;timestamp;P1;durP1;ratioP1;P2;durP2;ratioP2
20140;SDS011;10231;47.702;9.826;2023-08-30T00:00:39;1.10;;;1.10;;
20140;SDS011;10231;47.702;9.826;2023-08-30T00:03:05;1.30;;;1.20;;
20140;SDS011;10231;47.702;9.826;2023-08-30T00:05:31;1.10;;;1.10;;
20140;SDS011;10231;47.702;9.826;2023-08-30T00:07:57;1.10;;;1.10;;
20140;SDS011;10231;47.702;9.826;2023-08-30T00:10:23;1.13;;;1.13;;
20140;SDS011;10231;47.702;9.826;2023-08-30T00:12:48;1.10;;;1.10;;
20140;SDS011;10231;47.702;9.826;2023-08-30T00:15:14;1.17;;;1.07;;
20140;SDS011;10231;47.702;9.826;2023-08-30T00:17:40;1.40;;;1.40;;
20140;SDS011;10231;47.702;9.826;2023-08-30T00:20:05;1.80;;;1.70;;
20140;SDS011;10231;47.702;9.826;2023-08-30T00:22:32;1.30;;;1.30;;
20140;SDS011;10231;47.702;9.826;2023-08-30T00:24:58;1.53;;;1.53;;
20140;SDS011;10231;47.702;9.826;2023-08-30T00:27:24;1.53;;;1.53;;
20140;SDS011;10231;47.702;9.826;2023-08-30T00:29:49;1.87;;;1.83;;
20140;SDS011;10231;47.702;9.826;2023-08-30T00:32:15;4.07;;;1.93;;
20140;SDS011;10231;47.702;9.826;2023-08-30T00:34:40;2.20;;;2.10;;
20140;SDS011;10231;47.702;9.826;2023-08-30T00:37:06;2.40;;;2.30;;
20140;SDS011;10231;47.702;9.826;2023-08-30T00:39:31;2.37;;;2.27;;
20140;SDS011;10231;47.702;9.826;2023-08-30T00:41:57;2.10;;;2.00;;
20140;SDS011;10231;47.702;9.826;2023-08-30T00:44:23;2.60;;;2.50;;
20140;SDS011;10231;47.702;9.826;2023-08-30T00:46:49;2.10;;;2.00;;
20140;SDS011;10231;47.702;9.826;2023-08-30T00:49:15;2.30;;;2.20;;
20140;SDS011;10231;47.702;9.826;2023-08-30T00:51:41;2.27;;;2.10;;
20140;SDS011;10231;47.702;9.826;2023-08-30T00:54:06;2.30;;;2.20;;
20140;SDS011;10231;47.702;9.826;2023-08-30T00:56:32;2.33;;;2.23;;
20140;SDS011;10231;47.702;9.826;2023-08-30T00:58:58;2.33;;;2.23;;
20140;SDS011;10231;47.702;9.826;2023-08-30T01:01:24;2.43;;;2.33;;
20140;SDS011;10231;47.702;9.826;2023-08-30T01:03:51;2.60;;;2.50;;
20140;SDS011;10231;47.702;9.826;2023-08-30T01:06:16;2.70;;;2.50;;
20140;SDS011;10231;47.702;9.826;2023-08-30T01:08:42;2.50;;;2.40;;
20140;SDS011;10231;47.702;9.826;2023-08-30T01:13:50;2.37;;;2.27;;
20140;SDS011;10231;47.702;9.826;2023-08-30T01:16:38;2.90;;;2.67;;
20140;SDS011;10231;47.702;9.826;2023-08-30T01:19:51;2.50;;;2.30;;
20140;SDS011;10231;47.702;9.826;2023-08-30T01:27:39;2.70;;;2.60;;
20140;SDS011;10231;47.702;9.826;2023-08-30T01:30:06;2.53;;;2.43;;
20140;SDS011;10231;47.702;9.826;2023-08-30T01:32:33;2.60;;;2.50;;
20140;SDS011;10231;47.702;9.826;2023-08-30T01:34:59;2.67;;;2.57;;
20140;SDS011;10231;47.702;9.826;2023-08-30T01:37:26;2.93;;;2.83;;
20140;SDS011;10231;47.702;9.826;2023-08-30T01:39:52;2.77;;;2.67;;
20140;SDS011;10231;47.702;9.826;2023-08-30T01:42:21;2.40;;;2.30;;
20140;SDS011;10231;47.702;9.826;2023-08-30T01:44:49;2.90;;;2.70;;
20140;SDS011;10231;47.702;9.826;2023-08-30T01:47:16;2.43;;;2.33;;
20140;SDS011;10231;47.702;9.826;2023-08-30T01:49:43;2.83;;;2.73;;
20140;SDS011;10231;47.702;9.826;2023-08-30T01:52:10;3.37;;;2.30;;
20140;SDS011;10231;47.702;9.826;2023-08-30T01:54:36;2.80;;;2.60;;
20140;SDS011;10231;47.702;9.826;2023-08-30T01:57:04;2.63;;;2.53;;
20140;SDS011;10231;47.702;9.826;2023-08-30T01:59:30;2.73;;;2.63;;
20140;SDS011;10231;47.702;9.826;2023-08-30T02:01:56;2.30;;;2.20;;
20140;SDS011;10231;47.702;9.826;2023-08-30T02:04:22;2.80;;;2.60;;
20140;SDS011;10231;47.702;9.826;2023-08-30T02:09:37;3.20;;;3.00;;
20140;SDS011;10231;47.702;9.826;2023-08-30T02:12:07;2.90;;;2.77;;
20140;SDS011;10231;47.702;9.826;2023-08-30T02:14:38;3.17;;;2.90;;
20140;SDS011;10231;47.702;9.826;2023-08-30T02:17:05;2.77;;;2.63;;
20140;SDS011;10231;47.702;9.826;2023-08-30T02:19:32;3.40;;;3.20;;
20140;SDS011;10231;47.702;9.826;2023-08-30T02:21:58;3.00;;;2.90;;
20140;SDS011;10231;47.702;9.826;2023-08-30T02:24:24;3.50;;;3.30;;
20140;SDS011;10231;47.702;9.826;2023-08-30T02:26:50;3.40;;;3.20;;
20140;SDS011;10231;47.702;9.826;2023-08-30T02:29:15;3.30;;;3.13;;
20140;SDS011;10231;47.702;9.826;2023-08-30T02:31:41;3.73;;;3.53;;
20140;SDS011;10231;47.702;9.826;2023-08-30T02:34:07;3.37;;;3.17;;
20140;SDS011;10231;47.702;9.826;2023-08-30T02:36:32;3.70;;;3.50;;
20140;SDS011;10231;47.702;9.826;2023-08-30T02:38:58;4.10;;;3.90;;
20140;SDS011;10231;47.702;9.826;2023-08-30T02:41:23;3.30;;;3.10;;
20140;SDS011;10231;47.702;9.826;2023-08-30T02:43:49;3.57;;;3.37;;
20140;SDS011;10231;47.702;9.826;2023-08-30T02:46:14;3.93;;;3.63;;
20140;SDS011;10231;47.702;9.826;2023-08-30T02:48:40;3.57;;;3.27;;
20140;SDS011;10231;47.702;9.826;2023-08-30T02:51:05;3.50;;;3.30;;
20140;SDS011;10231;47.702;9.826;2023-08-30T02:53:31;3.33;;;3.13;;
20140;SDS011;10231;47.702;9.826;2023-08-30T02:55:56;3.67;;;3.47;;
20140;SDS011;10231;47.702;9.826;2023-08-30T02:58:22;3.13;;;2.93;;
20140;SDS011;10231;47.702;9.826;2023-08-30T03:00:48;3.17;;;2.97;;
20140;SDS011;10231;47.702;9.826;2023-08-30T03:03:14;3.73;;;3.47;;
20140;SDS011;10231;47.702;9.826;2023-08-30T03:05:39;3.33;;;3.13;;
20140;SDS011;10231;47.702;9.826;2023-08-30T03:08:05;3.40;;;3.00;;
20140;SDS011;10231;47.702;9.826;2023-08-30T03:10:30;3.73;;;3.47;;
20140;SDS011;10231;47.702;9.826;2023-08-30T03:12:57;3.80;;;3.53;;
20140;SDS011;10231;47.702;9.826;2023-08-30T03:15:22;4.03;;;3.73;;
20140;SDS011;10231;47.702;9.826;2023-08-30T03:17:48;3.73;;;3.53;;
20140;SDS011;10231;47.702;9.826;2023-08-30T03:20:14;4.10;;;3.80;;
20140;SDS011;10231;47.702;9.826;2023-08-30T03:22:39;4.30;;;3.83;;
20140;SDS011;10231;47.702;9.826;2023-08-30T03:25:05;4.93;;;3.60;;
20140;SDS011;10231;47.702;9.826;2023-08-30T03:27:32;4.20;;;3.90;;
20140;SDS011;10231;47.702;9.826;2023-08-30T03:29:58;4.00;;;3.80;;
20140;SDS011;10231;47.702;9.826;2023-08-30T03:32:23;4.30;;;4.00;;
20140;SDS011;10231;47.702;9.826;2023-08-30T03:34:49;4.33;;;4.07;;
20140;SDS011;10231;47.702;9.826;2023-08-30T03:37:15;4.50;;;4.20;;
20140;SDS011;10231;47.702;9.826;2023-08-30T03:39:41;4.17;;;3.87;;
20140;SDS011;10231;47.702;9.826;2023-08-30T03:42:07;4.40;;;4.10;;
20140;SDS011;10231;47.702;9.826;2023-08-30T03:44:33;4.30;;;4.00;;
20140;SDS011;10231;47.702;9.826;2023-08-30T03:46:58;3.80;;;3.47;;
20140;SDS011;10231;47.702;9.826;2023-08-30T03:49:24;4.33;;;3.93;;
20140;SDS011;10231;47.702;9.826;2023-08-30T03:51:50;4.50;;;4.20;;
20140;SDS011;10231;47.702;9.826;2023-08-30T03:54:15;4.70;;;4.40;;
20140;SDS011;10231;47.702;9.826;2023-08-30T03:56:44;4.47;;;4.17;;
20140;SDS011;10231;47.702;9.826;2023-08-30T03:59:10;4.60;;;4.30;;
20140;SDS011;10231;47.702;9.826;2023-08-30T04:01:36;4.60;;;4.30;;
20140;SDS011;10231;47.702;9.826;2023-08-30T04:04:02;4.90;;;4.17;;
20140;SDS011;10231;47.702;9.826;2023-08-30T04:06:27;5.37;;;4.77;;
20140;SDS011;10231;47.702;9.826;2023-08-30T04:08:53;4.50;;;4.27;;
20140;SDS011;10231;47.702;9.826;2023-08-30T04:11:18;4.53;;;4.13;;
20140;SDS011;10231;47.702;9.826;2023-08-30T04:13:44;5.03;;;4.53;;
20140;SDS011;10231;47.702;9.826;2023-08-30T04:16:10;4.77;;;4.47;;
20140;SDS011;10231;47.702;9.826;2023-08-30T04:18:35;4.60;;;4.20;;
20140;SDS011;10231;47.702;9.826;2023-08-30T04:21:01;4.57;;;4.27;;
20140;SDS011;10231;47.702;9.826;2023-08-30T04:23:27;4.77;;;4.43;;
20140;SDS011;10231;47.702;9.826;2023-08-30T04:25:54;8.93;;;4.97;;
20140;SDS011;10231;47.702;9.826;2023-08-30T04:28:20;4.93;;;4.63;;
20140;SDS011;10231;47.702;9.826;2023-08-30T04:30:45;4.73;;;4.43;;
20140;SDS011;10231;47.702;9.826;2023-08-30T04:33:11;4.90;;;4.57;;
20140;SDS011;10231;47.702;9.826;2023-08-30T04:35:36;4.20;;;3.90;;
20140;SDS011;10231;47.702;9.826;2023-08-30T04:38:03;4.23;;;3.93;;
20140;SDS011;10231;47.702;9.826;2023-08-30T04:40:29;4.20;;;4.00;;
20140;SDS011;10231;47.702;9.826;2023-08-30T04:42:55;4.93;;;4.53;;
20140;SDS011;10231;47.702;9.826;2023-08-30T04:45:21;4.73;;;4.43;;
20140;SDS011;10231;47.702;9.826;2023-08-30T04:47:47;4.90;;;4.50;;
20140;SDS011;10231;47.702;9.826;2023-08-30T04:50:13;5.13;;;4.73;;
20140;SDS011;10231;47.702;9.826;2023-08-30T04:52:38;4.90;;;4.60;;
20140;SDS011;10231;47.702;9.826;2023-08-30T04:55:04;5.30;;;4.90;;
20140;SDS011;10231;47.702;9.826;2023-08-30T04:57:30;4.70;;;4.40;;
20140;SDS011;10231;47.702;9.826;2023-08-30T04:59:56;4.70;;;4.40;;
20140;SDS011;10231;47.702;9.826;2023-08-30T05:02:22;4.80;;;4.50;;
20140;SDS011;10231;47.702;9.826;2023-08-30T05:04:48;4.90;;;4.60;;
20140;SDS011;10231;47.702;9.826;2023-08-30T05:07:13;4.90;;;4.60;;
20140;SDS011;10231;47.702;9.826;2023-08-30T05:09:39;5.87;;;5.40;;
20140;SDS011;10231;47.702;9.826;2023-08-30T05:12:05;5.87;;;5.47;;
20140;SDS011;10231;47.702;9.826;2023-08-30T05:14:31;5.50;;;5.10;;
20140;SDS011;10231;47.702;9.826;2023-08-30T05:16:57;5.27;;;4.87;;
20140;SDS011;10231;47.702;9.826;2023-08-30T05:19:22;6.23;;;5.73;;
20140;SDS011;10231;47.702;9.826;2023-08-30T05:21:48;6.97;;;6.37;;
20140;SDS011;10231;47.702;9.826;2023-08-30T05:24:16;6.83;;;6.23;;
20140;SDS011;10231;47.702;9.826;2023-08-30T05:26:42;6.80;;;6.30;;
20140;SDS011;10231;47.702;9.826;2023-08-30T05:29:08;6.67;;;6.07;;
20140;SDS011;10231;47.702;9.826;2023-08-30T05:31:33;6.80;;;6.10;;
20140;SDS011;10231;47.702;9.826;2023-08-30T05:33:59;6.80;;;6.03;;
20140;SDS011;10231;47.702;9.826;2023-08-30T05:36:24;8.50;;;6.73;;
20140;SDS011;10231;47.702;9.826;2023-08-30T05:38:50;6.33;;;5.83;;
20140;SDS011;10231;47.702;9.826;2023-08-30T05:41:15;6.43;;;5.90;;
20140;SDS011;10231;47.702;9.826;2023-08-30T05:43:41;6.70;;;6.17;;
20140;SDS011;10231;47.702;9.826;2023-08-30T05:46:07;6.27;;;5.77;;
20140;SDS011;10231;47.702;9.826;2023-08-30T05:48:39;5.57;;;5.10;;
20140;SDS011;10231;47.702;9.826;2023-08-30T05:51:05;6.93;;;6.43;;
20140;SDS011;10231;47.702;9.826;2023-08-30T05:53:30;5.20;;;4.90;;
20140;SDS011;10231;47.702;9.826;2023-08-30T05:55:56;5.13;;;4.63;;
20140;SDS011;10231;47.702;9.826;2023-08-30T05:58:21;4.53;;;4.23;;
20140;SDS011;10231;47.702;9.826;2023-08-30T06:00:47;4.83;;;4.53;;
20140;SDS011;10231;47.702;9.826;2023-08-30T06:03:12;5.00;;;4.17;;
20140;SDS011;10231;47.702;9.826;2023-08-30T06:05:38;4.70;;;4.40;;
20140;SDS011;10231;47.702;9.826;2023-08-30T06:08:03;4.77;;;4.40;;
20140;SDS011;10231;47.702;9.826;2023-08-30T06:10:29;4.77;;;4.47;;
20140;SDS011;10231;47.702;9.826;2023-08-30T06:12:55;5.17;;;4.87;;
20140;SDS011;10231;47.702;9.826;2023-08-30T06:15:20;6.23;;;4.40;;
20140;SDS011;10231;47.702;9.826;2023-08-30T06:17:46;4.93;;;4.43;;
20140;SDS011;10231;47.702;9.826;2023-08-30T06:20:11;4.63;;;4.33;;
20140;SDS011;10231;47.702;9.826;2023-08-30T06:22:37;5.83;;;5.03;;
20140;SDS011;10231;47.702;9.826;2023-08-30T06:25:04;4.70;;;4.27;;
20140;SDS011;10231;47.702;9.826;2023-08-30T06:27:31;4.70;;;4.40;;
20140;SDS011;10231;47.702;9.826;2023-08-30T06:29:57;4.40;;;4.10;;
20140;SDS011;10231;47.702;9.826;2023-08-30T06:32:22;4.43;;;4.23;;
20140;SDS011;10231;47.702;9.826;2023-08-30T06:34:48;4.27;;;3.97;;
20140;SDS011;10231;47.702;9.826;2023-08-30T06:37:14;3.80;;;3.60;;
20140;SDS011;10231;47.702;9.826;2023-08-30T06:39:39;4.30;;;4.00;;
20140;SDS011;10231;47.702;9.826;2023-08-30T06:42:05;4.03;;;3.73;;
20140;SDS011;10231;47.702;9.826;2023-08-30T06:44:30;4.93;;;4.00;;
20140;SDS011;10231;47.702;9.826;2023-08-30T06:46:56;4.40;;;4.00;;
20140;SDS011;10231;47.702;9.826;2023-08-30T06:49:22;4.37;;;4.07;;
20140;SDS011;10231;47.702;9.826;2023-08-30T06:51:49;4.33;;;3.97;;
20140;SDS011;10231;47.702;9.826;2023-08-30T06:54:14;3.80;;;3.60;;
20140;SDS011;10231;47.702;9.826;2023-08-30T06:56:40;4.20;;;3.80;;
20140;SDS011;10231;47.702;9.826;2023-08-30T06:59:05;3.43;;;3.23;;
20140;SDS011;10231;47.702;9.826;2023-08-30T07:01:31;3.90;;;3.60;;
20140;SDS011;10231;47.702;9.826;2023-08-30T07:03:56;3.73;;;3.43;;
20140;SDS011;10231;47.702;9.826;2023-08-30T07:06:22;4.47;;;4.17;;
20140;SDS011;10231;47.702;9.826;2023-08-30T07:08:48;3.90;;;3.60;;
20140;SDS011;10231;47.702;9.826;2023-08-30T07:11:13;4.43;;;3.67;;
20140;SDS011;10231;47.702;9.826;2023-08-30T07:13:39;3.60;;;3.40;;
20140;SDS011;10231;47.702;9.826;2023-08-30T07:16:04;4.67;;;4.33;;
20140;SDS011;10231;47.702;9.826;2023-08-30T07:18:30;4.23;;;3.93;;
20140;SDS011;10231;47.702;9.826;2023-08-30T07:20:55;3.30;;;3.10;;
20140;SDS011;10231;47.702;9.826;2023-08-30T07:23:21;3.67;;;3.20;;
20140;SDS011;10231;47.702;9.826;2023-08-30T07:25:46;4.37;;;4.07;;
20140;SDS011;10231;47.702;9.826;2023-08-30T07:28:12;3.93;;;3.63;;
20140;SDS011;10231;47.702;9.826;2023-08-30T07:30:37;3.43;;;3.13;;
20140;SDS011;10231;47.702;9.826;2023-08-30T07:33:03;4.57;;;3.70;;
20140;SDS011;10231;47.702;9.826;2023-08-30T07:35:30;3.40;;;3.20;;
20140;SDS011;10231;47.702;9.826;2023-08-30T07:37:56;3.00;;;2.80;;
20140;SDS011;10231;47.702;9.826;2023-08-30T07:40:21;2.93;;;2.73;;
20140;SDS011;10231;47.702;9.826;2023-08-30T07:42:51;2.57;;;2.37;;
20140;SDS011;10231;47.702;9.826;2023-08-30T07:45:17;2.80;;;2.60;;
20140;SDS011;10231;47.702;9.826;2023-08-30T07:47:43;2.47;;;2.37;;
20140;SDS011;10231;47.702;9.826;2023-08-30T07:50:08;2.97;;;2.77;;
20140;SDS011;10231;47.702;9.826;2023-08-30T07:52:34;1.87;;;1.83;;
20140;SDS011;10231;47.702;9.826;2023-08-30T07:54:59;2.23;;;2.13;;
20140;SDS011;10231;47.702;9.826;2023-08-30T07:57:25;2.67;;;2.47;;
20140;SDS011;10231;47.702;9.826;2023-08-30T07:59:50;2.30;;;2.00;;
20140;SDS011;10231;47.702;9.826;2023-08-30T08:02:16;2.10;;;1.90;;
20140;SDS011;10231;47.702;9.826;2023-08-30T08:04:41;1.80;;;1.73;;
20140;SDS011;10231;47.702;9.826;2023-08-30T08:07:07;2.40;;;2.30;;
20140;SDS011;10231;47.702;9.826;2023-08-30T08:09:33;2.30;;;2.20;;
20140;SDS011;10231;47.702;9.826;2023-08-30T08:11:59;2.00;;;1.90;;
20140;SDS011;10231;47.702;9.826;2023-08-30T08:14:25;1.03;;;1.03;;
20140;SDS011;10231;47.702;9.826;2023-08-30T08:16:50;1.00;;;1.00;;
20140;SDS011;10231;47.702;9.826;2023-08-30T08:19:16;1.50;;;1.20;;
20140;SDS011;10231;47.702;9.826;2023-08-30T08:21:41;2.40;;;1.53;;
20140;SDS011;10231;47.702;9.826;2023-08-30T08:24:07;1.40;;;1.30;;
20140;SDS011;10231;47.702;9.826;2023-08-30T08:26:33;1.63;;;1.53;;
20140;SDS011;10231;47.702;9.826;2023-08-30T08:28:58;1.90;;;1.80;;
20140;SDS011;10231;47.702;9.826;2023-08-30T08:31:24;1.40;;;1.30;;
20140;SDS011;10231;47.702;9.826;2023-08-30T08:33:51;1.10;;;1.10;;
20140;SDS011;10231;47.702;9.826;2023-08-30T08:36:29;1.00;;;1.00;;
20140;SDS011;10231;47.702;9.826;2023-08-30T08:38:55;1.73;;;1.60;;
20140;SDS011;10231;47.702;9.826;2023-08-30T08:41:20;2.07;;;1.97;;
20140;SDS011;10231;47.702;9.826;2023-08-30T08:43:52;1.03;;;0.97;;
20140;SDS011;10231;47.702;9.826;2023-08-30T08:46:18;2.30;;;1.60;;
20140;SDS011;10231;47.702;9.826;2023-08-30T08:48:46;1.20;;;1.20;;
20140;SDS011;10231;47.702;9.826;2023-08-30T08:51:13;1.83;;;1.80;;
20140;SDS011;10231;47.702;9.826;2023-08-30T08:53:39;1.77;;;1.53;;
20140;SDS011;10231;47.702;9.826;2023-08-30T08:56:06;1.50;;;1.40;;
20140;SDS011;10231;47.702;9.826;2023-08-30T08:58:33;2.00;;;1.90;;
20140;SDS011;10231;47.702;9.826;2023-08-30T09:01:01;1.67;;;1.67;;
20140;SDS011;10231;47.702;9.826;2023-08-30T09:03:29;2.43;;;1.90;;
20140;SDS011;10231;47.702;9.826;2023-08-30T09:05:54;1.53;;;1.43;;
20140;SDS011;10231;47.702;9.826;2023-08-30T09:08:20;1.40;;;1.30;;
20140;SDS011;10231;47.702;9.826;2023-08-30T09:10:47;1.77;;;1.60;;
20140;SDS011;10231;47.702;9.826;2023-08-30T09:13:15;1.67;;;1.57;;
20140;SDS011;10231;47.702;9.826;2023-08-30T09:15:41;1.70;;;1.60;;
20140;SDS011;10231;47.702;9.826;2023-08-30T09:18:16;2.30;;;1.80;;
20140;SDS011;10231;47.702;9.826;2023-08-30T09:20:42;1.30;;;1.30;;
20140;SDS011;10231;47.702;9.826;2023-08-30T09:23:20;1.70;;;1.63;;
20140;SDS011;10231;47.702;9.826;2023-08-30T09:25:46;3.23;;;1.90;;
20140;SDS011;10231;47.702;9.826;2023-08-30T09:28:12;1.60;;;1.40;;
20140;SDS011;10231;47.702;9.826;2023-08-30T09:30:38;1.67;;;1.57;;
20140;SDS011;10231;47.702;9.826;2023-08-30T09:33:04;1.33;;;1.33;;
20140;SDS011;10231;47.702;9.826;2023-08-30T09:35:30;1.13;;;1.10;;
20140;SDS011;10231;47.702;9.826;2023-08-30T09:37:56;1.23;;;1.20;;
20140;SDS011;10231;47.702;9.826;2023-08-30T09:40:22;1.40;;;1.27;;
20140;SDS011;10231;47.702;9.826;2023-08-30T09:42:48;1.17;;;1.17;;
20140;SDS011;10231;47.702;9.826;2023-08-30T09:45:17;1.03;;;1.03;;
20140;SDS011;10231;47.702;9.826;2023-08-30T09:47:46;1.30;;;1.30;;
20140;SDS011;10231;47.702;9.826;2023-08-30T09:50:13;1.20;;;1.20;;
20140;SDS011;10231;47.702;9.826;2023-08-30T09:52:41;1.20;;;1.20;;
20140;SDS011;10231;47.702;9.826;2023-08-30T09:55:08;1.30;;;1.20;;
20140;SDS011;10231;47.702;9.826;2023-08-30T09:57:34;1.40;;;1.30;;
20140;SDS011;10231;47.702;9.826;2023-08-30T10:00:01;1.40;;;1.30;;
20140;SDS011;10231;47.702;9.826;2023-08-30T10:02:28;2.23;;;1.73;;
20140;SDS011;10231;47.702;9.826;2023-08-30T10:04:56;1.30;;;1.23;;
20140;SDS011;10231;47.702;9.826;2023-08-30T10:07:22;1.67;;;1.50;;
20140;SDS011;10231;47.702;9.826;2023-08-30T10:09:50;1.20;;;1.20;;
20140;SDS011;10231;47.702;9.826;2023-08-30T10:12:19;0.83;;;0.83;;
20140;SDS011;10231;47.702;9.826;2023-08-30T10:14:47;1.37;;;1.27;;
20140;SDS011;10231;47.702;9.826;2023-08-30T10:17:13;1.80;;;1.13;;
20140;SDS011;10231;47.702;9.826;2023-08-30T10:19:42;1.37;;;1.27;;
20140;SDS011;10231;47.702;9.826;2023-08-30T10:22:10;1.10;;;1.10;;
20140;SDS011;10231;47.702;9.826;2023-08-30T10:24:59;0.90;;;0.90;;
20140;SDS011;10231;47.702;9.826;2023-08-30T10:27:29;1.33;;;1.23;;
20140;SDS011;10231;47.702;9.826;2023-08-30T10:29:56;1.13;;;1.13;;
20140;SDS011;10231;47.702;9.826;2023-08-30T10:32:25;1.30;;;1.20;;
20140;SDS011;10231;47.702;9.826;2023-08-30T10:34:51;1.80;;;1.70;;
20140;SDS011;10231;47.702;9.826;2023-08-30T10:37:21;1.00;;;1.00;;
20140;SDS011;10231;47.702;9.826;2023-08-30T10:39:49;1.23;;;1.23;;
20140;SDS011;10231;47.702;9.826;2023-08-30T10:42:15;0.87;;;0.87;;
20140;SDS011;10231;47.702;9.826;2023-08-30T10:44:51;2.37;;;1.57;;
20140;SDS011;10231;47.702;9.826;2023-08-30T10:47:23;1.00;;;1.00;;
20140;SDS011;10231;47.702;9.826;2023-08-30T10:49:48;2.47;;;1.20;;
20140;SDS011;10231;47.702;9.826;2023-08-30T10:52:14;1.43;;;1.20;;
20140;SDS011;10231;47.702;9.826;2023-08-30T10:54:40;1.60;;;1.20;;
20140;SDS011;10231;47.702;9.826;2023-08-30T10:57:12;1.50;;;1.40;;
20140;SDS011;10231;47.702;9.826;2023-08-30T10:59:38;1.30;;;1.30;;
20140;SDS011;10231;47.702;9.826;2023-08-30T11:02:05;1.10;;;1.10;;
20140;SDS011;10231;47.702;9.826;2023-08-30T11:04:31;1.50;;;1.50;;
20140;SDS011;10231;47.702;9.826;2023-08-30T11:06:57;2.67;;;2.43;;
20140;SDS011;10231;47.702;9.826;2023-08-30T11:09:23;1.63;;;1.00;;
20140;SDS011;10231;47.702;9.826;2023-08-30T11:11:50;0.87;;;0.87;;
20140;SDS011;10231;47.702;9.826;2023-08-30T11:14:17;0.73;;;0.73;;
20140;SDS011;10231;47.702;9.826;2023-08-30T11:16:44;1.03;;;0.93;;
20140;SDS011;10231;47.702;9.826;2023-08-30T11:19:10;0.73;;;0.73;;
20140;SDS011;10231;47.702;9.826;2023-08-30T11:21:37;1.27;;;1.27;;
20140;SDS011;10231;47.702;9.826;2023-08-30T11:24:04;1.00;;;1.00;;
20140;SDS011;10231;47.702;9.826;2023-08-30T11:26:31;1.10;;;0.87;;
20140;SDS011;10231;47.702;9.826;2023-08-30T11:28:57;0.70;;;0.70;;
20140;SDS011;10231;47.702;9.826;2023-08-30T11:31:25;1.83;;;0.83;;
20140;SDS011;10231;47.702;9.826;2023-08-30T11:33:52;0.80;;;0.80;;
20140;SDS011;10231;47.702;9.826;2023-08-30T11:36:21;1.13;;;0.80;;
20140;SDS011;10231;47.702;9.826;2023-08-30T11:38:48;1.10;;;1.10;;
20140;SDS011;10231;47.702;9.826;2023-08-30T11:41:14;1.10;;;1.00;;
20140;SDS011;10231;47.702;9.826;2023-08-30T11:43:40;1.00;;;1.00;;
20140;SDS011;10231;47.702;9.826;2023-08-30T11:46:05;1.00;;;0.90;;
20140;SDS011;10231;47.702;9.826;2023-08-30T11:48:31;0.70;;;0.70;;
20140;SDS011;10231;47.702;9.826;2023-08-30T11:50:58;1.00;;;0.80;;
20140;SDS011;10231;47.702;9.826;2023-08-30T11:53:24;1.20;;;1.10;;
20140;SDS011;10231;47.702;9.826;2023-08-30T11:55:50;1.17;;;1.17;;
20140;SDS011;10231;47.702;9.826;2023-08-30T11:58:20;1.00;;;1.00;;
20140;SDS011;10231;47.702;9.826;2023-08-30T12:00:45;2.00;;;1.90;;
20140;SDS011;10231;47.702;9.826;2023-08-30T12:03:14;2.73;;;2.53;;
20140;SDS011;10231;47.702;9.826;2023-08-30T12:05:47;1.70;;;1.60;;
20140;SDS011;10231;47.702;9.826;2023-08-30T12:08:26;2.00;;;1.80;;
20140;SDS011;10231;47.702;9.826;2023-08-30T12:10:55;2.43;;;1.30;;
20140;SDS011;10231;47.702;9.826;2023-08-30T12:15:51;1.60;;;1.50;;
20140;SDS011;10231;47.702;9.826;2023-08-30T12:18:20;1.30;;;1.30;;
20140;SDS011;10231;47.702;9.826;2023-08-30T12:20:53;2.30;;;2.10;;
20140;SDS011;10231;47.702;9.826;2023-08-30T12:23:23;1.57;;;1.47;;
20140;SDS011;10231;47.702;9.826;2023-08-30T12:25:59;2.60;;;1.93;;
20140;SDS011;10231;47.702;9.826;2023-08-30T12:28:33;1.43;;;1.40;;
20140;SDS011;10231;47.702;9.826;2023-08-30T12:31:00;1.90;;;1.80;;
20140;SDS011;10231;47.702;9.826;2023-08-30T12:33:26;1.60;;;1.40;;
20140;SDS011;10231;47.702;9.826;2023-08-30T12:35:53;1.87;;;1.77;;
20140;SDS011;10231;47.702;9.826;2023-08-30T12:38:19;1.50;;;1.50;;
20140;SDS011;10231;47.702;9.826;2023-08-30T12:40:46;1.67;;;1.57;;
20140;SDS011;10231;47.702;9.826;2023-08-30T12:43:13;1.50;;;1.50;;
20140;SDS011;10231;47.702;9.826;2023-08-30T12:45:39;1.10;;;1.10;;
20140;SDS011;10231;47.702;9.826;2023-08-30T12:48:06;1.70;;;1.60;;
20140;SDS011;10231;47.702;9.826;2023-08-30T12:50:32;1.97;;;1.60;;
20140;SDS011;10231;47.702;9.826;2023-08-30T12:52:58;1.20;;;1.17;;
20140;SDS011;10231;47.702;9.826;2023-08-30T12:55:23;1.13;;;1.07;;
20140;SDS011;10231;47.702;9.826;2023-08-30T12:57:49;0.90;;;0.90;;
20140;SDS011;10231;47.702;9.826;2023-08-30T13:00:14;1.37;;;1.27;;
20140;SDS011;10231;47.702;9.826;2023-08-30T13:02:40;1.30;;;1.20;;
20140;SDS011;10231;47.702;9.826;2023-08-30T13:05:06;0.83;;;0.83;;
20140;SDS011;10231;47.702;9.826;2023-08-30T13:07:31;1.23;;;1.03;;
20140;SDS011;10231;47.702;9.826;2023-08-30T13:09:58;1.37;;;1.37;;
20140;SDS011;10231;47.702;9.826;2023-08-30T13:12:23;1.87;;;1.30;;
20140;SDS011;10231;47.702;9.826;2023-08-30T13:14:49;1.37;;;1.30;;
20140;SDS011;10231;47.702;9.826;2023-08-30T13:17:14;1.60;;;1.50;;
20140;SDS011;10231;47.702;9.826;2023-08-30T13:19:42;1.23;;;0.90;;
20140;SDS011;10231;47.702;9.826;2023-08-30T13:22:08;0.77;;;0.77;;
20140;SDS011;10231;47.702;9.826;2023-08-30T13:24:35;0.87;;;0.87;;
20140;SDS011;10231;47.702;9.826;2023-08-30T13:27:00;0.83;;;0.83;;
20140;SDS011;10231;47.702;9.826;2023-08-30T13:29:26;1.30;;;1.20;;
20140;SDS011;10231;47.702;9.826;2023-08-30T13:31:52;0.80;;;0.80;;
20140;SDS011;10231;47.702;9.826;2023-08-30T13:34:17;0.80;;;0.80;;
20140;SDS011;10231;47.702;9.826;2023-08-30T13:36:43;1.07;;;0.97;;
20140;SDS011;10231;47.702;9.826;2023-08-30T13:39:08;1.13;;;0.70;;
20140;SDS011;10231;47.702;9.826;2023-08-30T13:41:34;1.03;;;0.70;;
20140;SDS011;10231;47.702;9.826;2023-08-30T13:44:00;0.87;;;0.87;;
20140;SDS011;10231;47.702;9.826;2023-08-30T13:46:28;0.77;;;0.53;;
20140;SDS011;10231;47.702;9.826;2023-08-30T13:48:54;0.83;;;0.70;;
20140;SDS011;10231;47.702;9.826;2023-08-30T13:51:21;0.67;;;0.63;;
20140;SDS011;10231;47.702;9.826;2023-08-30T13:53:47;0.60;;;0.60;;
20140;SDS011;10231;47.702;9.826;2023-08-30T13:56:13;0.73;;;0.73;;
20140;SDS011;10231;47.702;9.826;2023-08-30T13:58:39;0.70;;;0.70;;
20140;SDS011;10231;47.702;9.826;2023-08-30T14:01:04;0.80;;;0.80;;
20140;SDS011;10231;47.702;9.826;2023-08-30T14:03:30;1.03;;;0.60;;
20140;SDS011;10231;47.702;9.826;2023-08-30T14:05:56;0.73;;;0.60;;
20140;SDS011;10231;47.702;9.826;2023-08-30T14:08:21;0.87;;;0.73;;
20140;SDS011;10231;47.702;9.826;2023-08-30T14:10:47;0.40;;;0.40;;
20140;SDS011;10231;47.702;9.826;2023-08-30T14:13:13;0.60;;;0.60;;
20140;SDS011;10231;47.702;9.826;2023-08-30T14:15:38;0.70;;;0.60;;
20140;SDS011;10231;47.702;9.826;2023-08-30T14:18:04;0.50;;;0.50;;
20140;SDS011;10231;47.702;9.826;2023-08-30T14:20:29;0.83;;;0.70;;
20140;SDS011;10231;47.702;9.826;2023-08-30T14:22:55;0.70;;;0.50;;
20140;SDS011;10231;47.702;9.826;2023-08-30T14:25:20;0.60;;;0.53;;
20140;SDS011;10231;47.702;9.826;2023-08-30T14:27:46;0.60;;;0.60;;
20140;SDS011;10231;47.702;9.826;2023-08-30T14:30:11;0.60;;;0.60;;
20140;SDS011;10231;47.702;9.826;2023-08-30T14:32:37;2.60;;;0.90;;
20140;SDS011;10231;47.702;9.826;2023-08-30T14:35:03;2.73;;;0.70;;
20140;SDS011;10231;47.702;9.826;2023-08-30T14:37:29;0.80;;;0.80;;
20140;SDS011;10231;47.702;9.826;2023-08-30T14:39:54;0.90;;;0.80;;
20140;SDS011;10231;47.702;9.826;2023-08-30T14:42:20;1.07;;;0.80;;
20140;SDS011;10231;47.702;9.826;2023-08-30T14:44:49;0.87;;;0.87;;
20140;SDS011;10231;47.702;9.826;2023-08-30T14:47:16;0.80;;;0.80;;
20140;SDS011;10231;47.702;9.826;2023-08-30T14:49:42;0.80;;;0.80;;
20140;SDS011;10231;47.702;9.826;2023-08-30T14:52:07;0.87;;;0.87;;
20140;SDS011;10231;47.702;9.826;2023-08-30T14:54:33;0.50;;;0.50;;
20140;SDS011;10231;47.702;9.826;2023-08-30T14:56:58;0.93;;;0.60;;